Time;durP1;ratioP1;P1;durP2;ratioP2;P2;SDS_P1;SDS_P2;PMS_P1;PMS_P2;Temp;Humidity;BMP_temperature;BMP_pressure;BME280_temperature;BME280_humidity;BME280_pressure;Samples;Min_cycle;Max_cycle;Signal;HPM_P1;HPM_P2
2023/03/01 00:01:53;;;;;;;11.70;6.75;;;;;;;-0.53;100.00;102778.16;5076499;28;20437;-81
2023/03/01 00:04:18;;;;;;;12.80;6.80;;;;;;;-0.51;100.00;102776.34;5064844;28;20040;-81
2023/03/01 00:06:47;;;;;;;12.98;6.65;;;;;;;-0.58;100.00;102772.78;5048677;28;20047;-80
2023/03/01 00:09:16;;;;;;;9.55;5.78;;;;;;;-0.68;100.00;102773.69;5070972;28;20036;-81
2023/03/01 00:11:42;;;;;;;11.70;6.30;;;;;;;-0.64;100.00;102775.47;5058042;28;20035;-81
2023/03/01 00:14:08;;;;;;;12.15;7.15;;;;;;;-0.76;100.00;102773.69;5059514;28;20036;-81
2023/03/01 00:16:39;;;;;;;11.48;6.72;;;;;;;-0.71;100.00;102779.94;5079477;28;20387;-81
2023/03/01 00:19:05;;;;;;;10.05;6.22;;;;;;;-0.72;100.00;102772.81;5078724;28;20035;-81
2023/03/01 00:21:31;;;;;;;13.18;6.10;;;;;;;-0.68;100.00;102781.75;5084528;28;20028;-81
2023/03/01 00:23:57;;;;;;;10.75;6.18;;;;;;;-0.74;100.00;102777.25;5059042;28;20033;-81
2023/03/01 00:26:24;;;;;;;10.27;6.50;;;;;;;-0.84;100.00;102783.56;5063228;28;20365;-81
2023/03/01 00:28:50;;;;;;;10.50;5.88;;;;;;;-0.86;100.00;102772.78;5077753;28;20065;-81
2023/03/01 00:31:19;;;;;;;13.05;6.93;;;;;;;-0.82;100.00;102771.91;5062804;28;20062;-81
2023/03/01 00:33:45;;;;;;;12.10;7.00;;;;;;;-0.95;100.00;102768.31;5089107;28;20028;-81
2023/03/01 00:36:13;;;;;;;12.07;6.90;;;;;;;-0.88;100.00;102779.97;5059876;28;20037;-81
2023/03/01 00:38:43;;;;;;;14.75;7.00;;;;;;;-0.95;100.00;102773.72;5093904;28;20088;-80
2023/03/01 00:41:11;;;;;;;12.73;6.70;;;;;;;-1.03;100.00;102775.50;5074685;28;20502;-81
2023/03/01 00:43:37;;;;;;;12.98;6.82;;;;;;;-1.16;100.00;102763.84;5072611;28;20094;-81
2023/03/01 00:46:08;;;;;;;10.65;5.82;;;;;;;-1.17;100.00;102745.91;5078831;28;20063;-81
2023/03/01 00:48:35;;;;;;;14.45;6.30;;;;;;;-1.11;100.00;102753.97;5083675;28;20043;-81
2023/03/01 00:51:11;;;;;;;11.23;6.20;;;;;;;-1.11;100.00;102745.91;5052257;28;20032;-81
2023/03/01 00:53:37;;;;;;;11.05;6.55;;;;;;;-1.01;100.00;102751.31;5098079;28;20051;-81
2023/03/01 00:56:03;;;;;;;10.20;6.00;;;;;;;-0.91;100.00;102753.09;5077911;28;20029;-81
2023/03/01 00:58:29;;;;;;;9.05;6.25;;;;;;;-0.95;100.00;102754.00;5098309;28;20164;-81
2023/03/01 01:00:55;;;;;;;10.00;5.88;;;;;;;-0.93;100.00;102746.81;5115152;28;20439;-81
2023/03/01 01:03:21;;;;;;;18.35;6.93;;;;;;;-0.92;100.00;102743.22;5103963;28;20044;-81
2023/03/01 01:05:46;;;;;;;10.13;5.88;;;;;;;-1.04;100.00;102749.50;5055473;28;20509;-80
2023/03/01 01:08:12;;;;;;;11.93;6.25;;;;;;;-1.02;100.00;102739.63;5077518;28;20035;-80
2023/03/01 01:10:37;;;;;;;12.93;7.15;;;;;;;-1.14;100.00;102735.16;5091555;28;20394;-81
2023/03/01 01:13:03;;;;;;;11.38;6.63;;;;;;;-1.15;100.00;102741.47;5080829;28;20043;-81
2023/03/01 01:15:33;;;;;;;10.68;6.00;;;;;;;-1.23;100.00;102737.88;5085630;28;20032;-80
2023/03/01 01:17:58;;;;;;;10.43;6.20;;;;;;;-1.26;100.00;102742.31;5102682;28;20096;-81
2023/03/01 01:20:27;;;;;;;16.75;6.32;;;;;;;-1.30;100.00;102731.59;5055697;28;20028;-81
2023/03/01 01:22:53;;;;;;;9.85;6.85;;;;;;;-1.35;100.00;102722.59;5110757;28;20034;-81
2023/03/01 01:25:24;;;;;;;9.65;6.18;;;;;;;-1.28;100.00;102718.13;5075072;28;20658;-80
2023/03/01 01:27:50;;;;;;;13.50;6.68;;;;;;;-1.14;100.00;102712.78;5110735;28;20028;-81
2023/03/01 01:30:16;;;;;;;11.50;6.07;;;;;;;-1.23;100.00;102704.69;5114271;28;20039;-81
2023/03/01 01:32:42;;;;;;;10.80;6.50;;;;;;;-1.12;100.00;102702.91;5064766;28;20587;-80
2023/03/01 01:35:07;;;;;;;12.98;6.18;;;;;;;-1.27;100.00;102698.44;5093283;28;20064;-81
2023/03/01 01:37:33;;;;;;;10.50;6.25;;;;;;;-1.22;100.00;102706.50;5079863;28;20088;-81
2023/03/01 01:39:59;;;;;;;10.15;6.00;;;;;;;-1.21;100.00;102700.25;5078485;28;20335;-81
2023/03/01 01:42:24;;;;;;;9.30;6.05;;;;;;;-1.30;100.00;102696.66;5094842;28;20415;-80
2023/03/01 01:45:28;;;;;;;12.93;6.32;;;;;;;-1.31;100.00;102688.59;5079897;28;20112;-80
2023/03/01 01:47:57;;;;;;;13.80;5.80;;;;;;;-1.30;100.00;102699.34;5114279;28;20439;-80
2023/03/01 01:50:23;;;;;;;8.77;5.80;;;;;;;-1.35;100.00;102694.84;5113305;28;20031;-80
2023/03/01 01:52:50;;;;;;;11.63;6.40;;;;;;;-1.30;100.00;102691.28;5095573;28;20133;-80
2023/03/01 01:55:21;;;;;;;10.13;6.07;;;;;;;-1.31;100.00;102686.81;5073934;28;20028;-80
2023/03/01 01:57:53;;;;;;;9.00;5.55;;;;;;;-1.31;100.00;102677.84;5103182;28;20028;-80
2023/03/01 02:00:25;;;;;;;10.43;6.47;;;;;;;-1.28;100.00;102680.50;5099159;28;20032;-80
2023/03/01 02:02:56;;;;;;;12.50;6.03;;;;;;;-1.37;100.00;102676.06;5096986;28;20115;-80
2023/03/01 02:05:51;;;;;;;9.77;6.13;;;;;;;-1.34;100.00;102678.75;5086448;28;20411;-81
2023/03/01 02:08:19;;;;;;;9.27;5.97;;;;;;;-1.37;100.00;102676.06;5094409;28;20024;-80
2023/03/01 02:10:46;;;;;;;12.15;6.18;;;;;;;-1.43;100.00;102672.47;5095960;28;20027;-80
2023/03/01 02:13:12;;;;;;;11.68;6.63;;;;;;;-1.47;100.00;102674.25;5114995;28;20490;-79
2023/03/01 02:15:40;;;;;;;12.77;6.93;;;;;;;-1.40;100.00;102676.03;5104681;28;20046;-79
2023/03/01 02:18:07;;;;;;;14.98;5.97;;;;;;;-1.35;100.00;102679.63;5114934;28;20033;-80
2023/03/01 02:21:00;;;;;;;13.35;6.03;;;;;;;-1.44;100.00;102689.47;5087224;28;20020;-81
2023/03/01 02:23:27;;;;;;;;;;;;;;;-1.46;100.00;102680.53;5060312;28;20032;-81
2023/03/01 02:25:55;;;;;;;9.57;5.25;;;;;;;-1.50;100.00;102676.94;5052161;28;19916;-79
2023/03/01 02:28:21;;;;;;;10.68;6.07;;;;;;;-1.61;100.00;102676.91;5068724;28;20068;-79
2023/03/01 02:33:35;;;;;;;13.10;6.95;;;;;;;-1.71;100.00;102676.00;5092168;28;20028;-79
2023/03/01 02:36:13;;;;;;;12.68;6.85;;;;;;;-1.59;100.00;102674.25;5090854;28;20120;-79
2023/03/01 02:38:41;;;;;;;12.18;6.15;;;;;;;-1.59;100.00;102668.88;5114147;28;20032;-80
2023/03/01 02:41:08;;;;;;;11.82;6.78;;;;;;;-1.61;100.00;102674.25;5092995;28;20032;-80
2023/03/01 02:43:35;;;;;;;9.20;5.90;;;;;;;-1.59;100.00;102674.25;5089967;28;20453;-80
2023/03/01 02:46:06;;;;;;;10.88;6.07;;;;;;;-1.59;100.00;102666.19;5091020;28;20028;-79
2023/03/01 02:49:01;;;;;;;13.60;6.32;;;;;;;-1.58;100.00;102668.88;5114930;28;20035;-79
2023/03/01 02:51:33;;;;;;;10.48;6.03;;;;;;;-1.55;100.00;102665.31;5062645;28;20090;-80
2023/03/01 02:54:37;;;;;;;12.48;6.35;;;;;;;-1.54;100.00;102659.03;5096010;28;20366;-78
2023/03/01 02:57:03;;;;;;;10.48;5.95;;;;;;;-1.54;100.00;102653.66;5047586;28;20036;-79
2023/03/01 02:59:38;;;;;;;10.00;5.80;;;;;;;-1.63;100.00;102657.25;5093787;28;20387;-79
2023/03/01 03:02:05;;;;;;;11.68;6.40;;;;;;;-1.64;100.00;102666.22;5065969;28;20085;-79
2023/03/01 03:04:31;;;;;;;9.07;6.35;;;;;;;-1.72;100.00;102663.50;5113360;28;20074;-79
2023/03/01 03:06:57;;;;;;;12.65;6.80;;;;;;;-1.81;100.00;102663.47;5078959;28;20062;-79
2023/03/01 03:09:23;;;;;;;11.85;6.53;;;;;;;-1.94;100.00;102669.72;5073731;28;20131;-79
2023/03/01 03:11:48;;;;;;;11.18;6.68;;;;;;;-2.12;100.00;102666.09;5080197;28;20034;-79
2023/03/01 03:14:16;;;;;;;13.07;6.90;;;;;;;-2.15;100.00;102655.34;5068785;28;20036;-79
2023/03/01 03:16:43;;;;;;;13.27;6.97;;;;;;;-2.14;100.00;102667.88;5087741;28;20475;-79
2023/03/01 03:19:09;;;;;;;12.43;7.13;;;;;;;-2.07;100.00;102663.41;5087105;28;20036;-79
2023/03/01 03:21:35;;;;;;;15.88;7.30;;;;;;;-2.21;100.00;102647.31;5083439;28;20100;-79
2023/03/01 03:24:00;;;;;;;16.15;6.82;;;;;;;-2.07;100.00;102664.31;5106786;28;20074;-79
2023/03/01 03:26:26;;;;;;;12.88;6.10;;;;;;;-1.94;100.00;102672.41;5093818;28;20038;-79
2023/03/01 03:28:51;;;;;;;8.90;5.53;;;;;;;-1.95;100.00;102663.47;5066974;28;20047;-79
2023/03/01 03:31:17;;;;;;;11.02;6.70;;;;;;;-1.92;100.00;102660.78;5095190;28;20164;-79
2023/03/01 03:33:43;;;;;;;12.77;6.03;;;;;;;-1.86;100.00;102662.59;5080803;28;20489;-79
2023/03/01 03:36:12;;;;;;;11.80;6.93;;;;;;;-1.89;100.00;102652.72;5113487;28;20132;-78
2023/03/01 03:38:39;;;;;;;13.05;6.53;;;;;;;-1.81;100.00;102663.47;5073438;28;20087;-79
2023/03/01 03:41:08;;;;;;;14.13;6.80;;;;;;;-1.85;100.00;102654.53;5090520;28;20398;-78
2023/03/01 03:43:36;;;;;;;14.20;7.60;;;;;;;-1.76;100.00;102675.13;5086575;28;20117;-78
2023/03/01 03:46:05;;;;;;;12.82;6.60;;;;;;;-1.74;100.00;102669.75;5118052;28;20480;-79
2023/03/01 03:48:35;;;;;;;10.70;6.05;;;;;;;-1.82;100.00;102666.16;5089241;28;20028;-79
2023/03/01 03:51:00;;;;;;;18.67;7.25;;;;;;;-1.78;100.00;102658.13;5109873;28;20039;-79
2023/03/01 03:53:28;;;;;;;10.75;6.40;;;;;;;-1.73;100.00;102650.06;5062058;28;20383;-79
2023/03/01 03:55:54;;;;;;;12.13;6.63;;;;;;;-1.73;100.00;102653.66;5070364;28;20373;-78
2023/03/01 03:58:22;;;;;;;10.07;5.88;;;;;;;-1.57;100.00;102645.63;5060218;28;20035;-79
2023/03/01 04:00:50;;;;;;;12.23;6.68;;;;;;;-1.76;100.00;102650.06;5058258;28;20040;-79
2023/03/01 04:03:18;;;;;;;11.38;6.78;;;;;;;-1.73;100.00;102652.75;5066358;28;20040;-79
2023/03/01 04:05:44;;;;;;;11.38;6.18;;;;;;;-1.71;100.00;102654.53;5071667;28;20361;-79
2023/03/01 04:08:11;;;;;;;11.98;6.00;;;;;;;-1.79;100.00;102640.22;5086155;28;20551;-79
2023/03/01 04:10:42;;;;;;;11.55;6.45;;;;;;;-1.76;100.00;102645.59;5077758;28;20034;-79
2023/03/01 04:13:11;;;;;;;14.68;6.35;;;;;;;-1.84;100.00;102642.00;5074810;28;20039;-79
2023/03/01 04:15:37;;;;;;;13.95;6.72;;;;;;;-1.90;100.00;102636.66;5081164;28;20043;-79
2023/03/01 04:18:03;;;;;;;11.80;6.55;;;;;;;-1.88;100.00;102625.00;5073558;28;20407;-79
2023/03/01 04:20:30;;;;;;;11.52;6.60;;;;;;;-1.89;100.00;102633.94;5047614;28;20402;-79
2023/03/01 04:23:10;;;;;;;23.92;7.38;;;;;;;-1.82;100.00;102642.91;5096176;28;20028;-77
2023/03/01 04:25:56;;;;;;;12.10;6.38;;;;;;;-1.83;100.00;102634.84;5070839;28;20037;-77
2023/03/01 04:28:24;;;;;;;11.35;6.32;;;;;;;-1.89;100.00;102630.34;5094153;28;20058;-77
2023/03/01 04:30:51;;;;;;;13.98;6.80;;;;;;;-2.03;100.00;102622.31;5065427;28;20571;-77
2023/03/01 04:33:16;;;;;;;10.30;6.57;;;;;;;-1.89;100.00;102623.19;5095856;28;20028;-80
2023/03/01 04:35:42;;;;;;;11.77;6.82;;;;;;;-1.89;100.00;102608.88;5046735;28;20028;-77
2023/03/01 04:38:08;;;;;;;12.18;6.82;;;;;;;-1.88;100.00;102613.38;5079346;28;20115;-77
2023/03/01 04:40:34;;;;;;;12.00;6.57;;;;;;;-1.92;100.00;102609.78;5068024;28;20090;-80
2023/03/01 04:43:00;;;;;;;13.00;6.60;;;;;;;-1.89;100.00;102590.97;5091467;28;20094;-78
2023/03/01 04:45:26;;;;;;;14.63;5.65;;;;;;;-1.79;100.00;102599.06;5055967;28;20471;-78
2023/03/01 04:47:54;;;;;;;10.80;6.57;;;;;;;-1.93;100.00;102599.06;5087298;28;20551;-77
2023/03/01 04:50:21;;;;;;;11.02;6.28;;;;;;;-2.09;100.00;102598.13;5032403;28;20123;-78
2023/03/01 04:52:47;;;;;;;13.57;7.18;;;;;;;-2.13;100.00;102599.91;5089089;28;20039;-78
2023/03/01 04:55:13;;;;;;;10.15;5.68;;;;;;;-1.93;100.00;102609.78;5084209;28;20047;-78
2023/03/01 04:57:38;;;;;;;9.45;6.10;;;;;;;-2.14;100.00;102600.81;5045825;28;20558;-77
2023/03/01 05:00:19;;;;;;;11.45;6.60;;;;;;;-2.33;100.00;102601.66;5077178;28;20039;-78
2023/03/01 05:02:48;;;;;;;9.68;6.07;;;;;;;-2.30;100.00;102596.28;5083382;28;20040;-77
2023/03/01 05:05:14;;;;;;;12.38;6.95;;;;;;;-2.33;100.00;102594.47;5060295;28;20165;-77
2023/03/01 05:07:39;;;;;;;10.48;6.10;;;;;;;-2.31;100.00;102610.59;5076846;28;20118;-77
2023/03/01 05:10:05;;;;;;;12.82;6.68;;;;;;;-2.27;100.00;102610.59;5071331;28;20108;-77
2023/03/01 05:12:31;;;;;;;14.35;7.05;;;;;;;-2.35;100.00;102598.06;5096470;28;20507;-78
2023/03/01 05:14:58;;;;;;;11.02;6.22;;;;;;;-2.35;100.00;102614.16;5097742;28;20365;-78
2023/03/01 05:17:23;;;;;;;11.48;6.60;;;;;;;-2.37;100.00;102605.22;5115261;28;20031;-79
2023/03/01 05:19:52;;;;;;;16.63;6.85;;;;;;;-2.45;100.00;102605.19;5108983;28;20069;-78
2023/03/01 05:22:19;;;;;;;11.60;7.15;;;;;;;-2.38;100.00;102608.78;5077974;28;20063;-78
2023/03/01 05:24:44;;;;;;;13.10;7.05;;;;;;;-2.47;100.00;102597.13;5065695;28;20049;-78
2023/03/01 05:27:10;;;;;;;10.48;6.50;;;;;;;-2.61;100.00;102593.50;5049447;28;20035;-77
2023/03/01 05:29:35;;;;;;;12.10;7.03;;;;;;;-2.51;100.00;102590.00;5112152;28;20050;-78
2023/03/01 05:32:02;;;;;;;14.20;7.32;;;;;;;-2.52;100.00;102582.81;5110852;28;20046;-78
2023/03/01 05:34:33;;;;;;;10.68;6.00;;;;;;;-2.49;100.00;102574.78;5083854;28;20039;-78
2023/03/01 05:36:59;;;;;;;10.90;6.82;;;;;;;-2.54;100.00;102581.94;5099488;28;20028;-78
2023/03/01 05:39:27;;;;;;;11.10;6.53;;;;;;;-2.56;100.00;102582.81;5090649;28;20038;-78
2023/03/01 05:41:55;;;;;;;18.98;7.65;;;;;;;-2.48;100.00;102573.00;5071954;28;20043;-79
2023/03/01 05:44:21;;;;;;;18.27;7.28;;;;;;;-2.43;100.00;102564.09;5096318;28;20043;-78
2023/03/01 05:46:47;;;;;;;13.95;6.97;;;;;;;-2.47;100.00;102567.63;5105644;28;20498;-79
2023/03/01 05:49:13;;;;;;;10.77;7.18;;;;;;;-2.62;100.00;102571.16;5095882;28;20044;-78
2023/03/01 05:51:40;;;;;;;14.48;7.22;;;;;;;-2.70;100.00;102569.38;5065874;28;20051;-77
2023/03/01 05:54:05;;;;;;;13.98;7.32;;;;;;;-2.83;100.00;102563.06;5070522;28;20507;-79
2023/03/01 05:56:34;;;;;;;13.02;7.47;;;;;;;-2.85;100.00;102560.38;5094807;28;20032;-80
2023/03/01 05:58:59;;;;;;;13.23;8.07;;;;;;;-2.97;100.00;102557.63;5082711;28;20040;-79
2023/03/01 06:01:25;;;;;;;14.38;7.65;;;;;;;-3.03;100.00;102566.53;5069311;28;20188;-79
2023/03/01 06:03:51;;;;;;;14.77;8.20;;;;;;;-3.12;100.00;102549.53;5074396;28;20566;-78
2023/03/01 06:06:16;;;;;;;17.23;8.13;;;;;;;-3.02;100.00;102559.38;5069702;28;20479;-79
2023/03/01 06:08:42;;;;;;;15.30;7.53;;;;;;;-3.12;100.00;102569.16;5072271;28;20032;-79
2023/03/01 06:11:07;;;;;;;13.18;7.80;;;;;;;-3.06;100.00;102571.88;5041685;28;20048;-79
2023/03/01 06:13:33;;;;;;;17.27;7.18;;;;;;;-3.09;100.00;102570.97;5074755;28;20032;-78
2023/03/01 06:15:58;;;;;;;14.23;7.95;;;;;;;-3.17;100.00;102579.84;5075180;28;20039;-78
2023/03/01 06:18:23;;;;;;;13.73;7.47;;;;;;;-3.11;100.00;102568.28;5036714;28;20036;-78
2023/03/01 06:20:56;;;;;;;19.92;7.82;;;;;;;-2.98;100.00;102571.94;5057784;28;20040;-79
2023/03/01 06:23:22;;;;;;;13.93;7.30;;;;;;;-2.92;100.00;102581.75;5066959;28;20569;-79
2023/03/01 06:25:47;;;;;;;11.93;6.68;;;;;;;-2.87;100.00;102575.56;5089217;28;20699;-78
2023/03/01 06:28:13;;;;;;;12.23;7.30;;;;;;;-2.83;100.00;102584.50;5075071;28;20036;-79
2023/03/01 06:30:38;;;;;;;16.88;8.32;;;;;;;-2.77;100.00;102577.38;5061063;28;20043;-78
2023/03/01 06:33:04;;;;;;;15.43;7.00;;;;;;;-2.69;100.00;102580.09;5079428;28;20032;-78
2023/03/01 06:35:30;;;;;;;15.20;7.65;;;;;;;-2.69;100.00;102574.75;5093544;28;20032;-79
2023/03/01 06:37:57;;;;;;;11.35;7.57;;;;;;;-2.69;100.00;102568.47;5038448;28;20033;-78
2023/03/01 06:40:23;;;;;;;11.77;7.10;;;;;;;-2.67;100.00;102569.34;5072056;28;20024;-79
2023/03/01 06:42:49;;;;;;;12.13;7.18;;;;;;;-2.63;100.00;102579.22;5073682;28;20090;-79
2023/03/01 06:45:15;;;;;;;12.80;7.53;;;;;;;-2.65;100.00;102576.53;5077859;28;20024;-79
2023/03/01 06:47:41;;;;;;;14.45;7.95;;;;;;;-2.62;100.00;102575.66;5075157;28;20107;-78
2023/03/01 06:50:07;;;;;;;16.38;8.70;;;;;;;-2.62;100.00;102575.66;5086139;28;20036;-78
2023/03/01 06:52:32;;;;;;;17.63;8.35;;;;;;;-2.60;100.00;102565.81;5054421;28;20393;-80
2023/03/01 06:54:58;;;;;;;15.98;8.38;;;;;;;-2.64;100.00;102567.59;5059550;28;20036;-80
2023/03/01 06:57:24;;;;;;;15.45;8.20;;;;;;;-2.83;100.00;102539.81;5055401;28;20115;-79
2023/03/01 06:59:49;;;;;;;17.33;8.68;;;;;;;-2.62;100.00;102559.56;5035609;28;20085;-79
2023/03/01 07:02:15;;;;;;;15.20;8.60;;;;;;;-2.60;100.00;102563.13;5093360;28;20097;-79
2023/03/01 07:04:42;;;;;;;15.57;8.57;;;;;;;-2.44;100.00;102564.09;5058424;28;20028;-79
2023/03/01 07:07:07;;;;;;;16.00;8.52;;;;;;;-2.31;100.00;102560.53;5093457;28;20028;-80
2023/03/01 07:09:33;;;;;;;17.90;7.97;;;;;;;-2.23;100.00;102563.22;5043986;28;20044;-79
2023/03/01 07:11:58;;;;;;;21.42;8.63;;;;;;;-2.06;100.00;102577.56;5089748;28;20055;-79
2023/03/01 07:14:25;;;;;;;16.77;8.15;;;;;;;-1.99;100.00;102572.19;5053948;28;20372;-80
2023/03/01 07:16:52;;;;;;;14.63;8.02;;;;;;;-1.95;100.00;102568.59;5065402;28;20036;-81
2023/03/01 07:19:19;;;;;;;16.95;8.02;;;;;;;-1.86;100.00;102572.19;5033760;28;20040;-80
2023/03/01 07:21:44;;;;;;;15.70;7.90;;;;;;;-1.79;100.00;102573.09;5087142;28;20040;-80
2023/03/01 07:24:10;;;;;;;14.27;9.15;;;;;;;-1.63;100.00;102575.78;5057712;28;20124;-81
2023/03/01 07:26:36;;;;;;;12.88;7.88;;;;;;;-1.51;100.00;102579.38;5062942;28;20106;-81
2023/03/01 07:29:04;;;;;;;21.00;9.05;;;;;;;-1.40;100.00;102570.38;5044110;28;20107;-81
2023/03/01 07:31:30;;;;;;;16.70;8.40;;;;;;;-1.26;100.00;102575.72;5063695;28;20029;-81
2023/03/01 07:33:56;;;;;;;16.30;8.35;;;;;;;-1.06;100.00;102584.66;5058800;28;20115;-81
2023/03/01 07:36:22;;;;;;;19.90;7.88;;;;;;;-0.91;100.00;102580.13;5072769;28;20104;-80
2023/03/01 07:38:47;;;;;;;15.82;7.68;;;;;;;-0.74;100.00;102580.94;5051255;28;20119;-83
2023/03/01 07:41:13;;;;;;;17.05;7.72;;;;;;;-0.51;100.00;102582.63;5069439;28;20449;-80
2023/03/01 07:43:38;;;;;;;15.57;7.88;;;;;;;-0.51;100.00;102580.84;5077880;28;20372;-80
2023/03/01 07:46:04;;;;;;;11.27;7.75;;;;;;;-0.27;100.00;102590.56;5095628;28;20036;-80
2023/03/01 07:48:30;;;;;;;18.02;8.73;;;;;;;-0.12;100.00;102584.19;5090850;28;20388;-81
2023/03/01 07:51:00;;;;;;;17.65;8.43;;;;;;;0.07;100.00;102584.97;5078593;28;20510;-80
2023/03/01 07:53:25;;;;;;;14.40;7.57;;;;;;;0.20;100.00;102592.94;5057171;28;20495;-80
2023/03/01 07:56:04;;;;;;;19.17;9.55;;;;;;;0.24;100.00;102590.22;5075305;28;20119;-81
2023/03/01 07:58:29;;;;;;;21.88;10.80;;;;;;;0.32;100.00;102582.97;5072909;28;20028;-80
2023/03/01 08:00:55;;;;;;;18.60;8.57;;;;;;;0.78;100.00;102578.06;5073755;28;20403;-80
2023/03/01 08:03:20;;;;;;;19.60;9.93;;;;;;;0.82;100.00;102579.81;5080278;28;20371;-80
2023/03/01 08:05:46;;;;;;;14.27;8.25;;;;;;;1.12;100.00;102580.41;5075638;28;20088;-80
2023/03/01 08:08:11;;;;;;;16.42;8.10;;;;;;;1.29;100.00;102584.66;5059301;28;20032;-80
2023/03/01 08:10:36;;;;;;;17.58;9.45;;;;;;;1.13;100.00;102587.56;5077862;28;20050;-80
2023/03/01 08:13:02;;;;;;;18.23;9.73;;;;;;;1.30;100.00;102582.88;5078383;28;20107;-80
2023/03/01 08:15:27;;;;;;;18.00;9.57;;;;;;;1.46;100.00;102567.38;5093083;28;20036;-82
2023/03/01 08:17:54;;;;;;;22.65;10.27;;;;;;;1.44;100.00;102575.50;5059865;28;20024;-82
2023/03/01 08:20:20;;;;;;;23.25;12.07;;;;;;;1.58;100.00;102575.28;5078629;28;20403;-80
2023/03/01 08:22:46;;;;;;;22.27;10.85;;;;;;;1.76;100.00;102578.66;5075688;28;20469;-80
2023/03/01 08:25:11;;;;;;;18.55;8.88;;;;;;;1.84;100.00;102577.63;5093140;28;20043;-80
2023/03/01 08:27:37;;;;;;;20.42;9.45;;;;;;;1.99;100.00;102565.69;5060084;28;20065;-81
2023/03/01 08:30:02;;;;;;;16.73;9.05;;;;;;;1.99;100.00;102567.50;5092408;28;20169;-82
2023/03/01 08:32:28;;;;;;;17.98;9.73;;;;;;;2.37;100.00;102563.28;5091166;28;20033;-81
2023/03/01 08:34:53;;;;;;;15.73;6.75;;;;;;;2.68;100.00;102558.22;5059381;28;20033;-81
2023/03/01 08:37:19;;;;;;;11.00;6.78;;;;;;;2.92;100.00;102553.28;5077951;28;20043;-80
2023/03/01 08:39:44;;;;;;;11.43;7.18;;;;;;;2.71;100.00;102560.88;5095482;28;20040;-80
2023/03/01 08:42:10;;;;;;;15.88;7.45;;;;;;;2.82;100.00;102557.06;5096776;28;20394;-82
2023/03/01 08:44:35;;;;;;;13.20;7.80;;;;;;;3.28;100.00;102558.84;5078209;28;20406;-80
2023/03/01 08:47:04;;;;;;;15.85;7.75;;;;;;;3.28;100.00;102558.84;5097374;28;20498;-81
2023/03/01 08:49:32;;;;;;;14.05;6.93;;;;;;;3.44;100.00;102554.91;5079882;28;20036;-81
2023/03/01 08:51:58;;;;;;;13.20;6.88;;;;;;;3.66;100.00;102544.47;5085700;28;20441;-81
2023/03/01 08:54:23;;;;;;;14.35;7.85;;;;;;;4.21;100.00;102544.06;5096428;28;20088;-81
2023/03/01 08:56:49;;;;;;;12.43;7.53;;;;;;;3.76;100.00;102547.84;5096552;28;20097;-81
2023/03/01 08:59:15;;;;;;;11.70;7.07;;;;;;;4.16;100.00;102535.16;5096896;28;20490;-81
2023/03/01 09:01:44;;;;;;;8.60;6.20;;;;;;;4.38;96.06;102547.25;5095680;28;20039;-81
2023/03/01 09:04:11;;;;;;;9.88;6.03;;;;;;;4.64;95.45;102547.47;5078797;28;20032;-82
2023/03/01 09:06:37;;;;;;;12.70;7.30;;;;;;;5.20;87.02;102542.28;5097073;28;20115;-80
2023/03/01 09:09:04;;;;;;;12.80;6.30;;;;;;;4.63;87.71;102535.75;5096738;28;20111;-81
2023/03/01 09:11:30;;;;;;;14.05;7.43;;;;;;;4.35;89.87;102533.75;5095814;28;20028;-80
2023/03/01 09:13:56;;;;;;;11.30;6.60;;;;;;;4.74;87.09;102538.19;5092444;28;20372;-81
2023/03/01 09:16:22;;;;;;;8.90;5.93;;;;;;;5.02;82.45;102541.00;5095805;28;20387;-81
2023/03/01 09:18:53;;;;;;;9.55;6.25;;;;;;;5.24;84.76;102533.09;5088099;28;20044;-80
2023/03/01 09:21:20;;;;;;;11.63;6.45;;;;;;;5.61;77.54;102537.44;5092186;28;20040;-81
2023/03/01 09:23:47;;;;;;;11.93;6.30;;;;;;;5.79;75.39;102535.06;5055399;28;20505;-81
2023/03/01 09:26:20;;;;;;;12.88;5.88;;;;;;;5.37;75.85;102527.31;5079110;28;20040;-81
2023/03/01 09:28:46;;;;;;;11.52;6.72;;;;;;;5.48;74.35;102527.88;5095678;28;20081;-81
2023/03/01 09:31:13;;;;;;;11.75;6.82;;;;;;;5.46;75.76;102521.59;5078566;28;20028;-81
2023/03/01 09:33:40;;;;;;;10.82;6.35;;;;;;;5.38;75.32;102510.97;5077931;28;20098;-82
2023/03/01 09:36:09;;;;;;;16.67;6.70;;;;;;;5.62;74.92;102522.88;5078086;28;20056;-81
2023/03/01 09:38:35;;;;;;;16.83;7.85;;;;;;;6.12;72.32;102518.63;5095659;28;20036;-80
2023/03/01 09:41:11;;;;;;;20.27;7.63;;;;;;;5.83;71.18;102520.44;5096652;28;20032;-81
2023/03/01 09:44:03;;;;;;;10.60;6.72;;;;;;;6.01;70.19;102508.09;5094945;28;20124;-81
2023/03/01 09:46:37;;;;;;;10.43;6.45;;;;;;;6.48;69.71;102494.72;5094518;28;20043;-81
2023/03/01 09:49:30;;;;;;;12.50;7.13;;;;;;;6.42;70.29;102503.09;5092831;28;20092;-81
2023/03/01 09:52:26;;;;;;;12.68;7.22;;;;;;;5.67;66.91;102512.78;5076020;28;20117;-82
2023/03/01 09:54:55;;;;;;;12.85;7.72;;;;;;;5.99;65.26;102500.00;5077856;28;20516;-81
2023/03/01 09:57:33;;;;;;;12.95;7.55;;;;;;;6.22;65.44;102504.66;5061780;28;20035;-81
2023/03/01 10:00:40;;;;;;;15.65;7.85;;;;;;;6.30;64.69;102498.09;5041593;28;20490;-82
2023/03/01 10:03:17;;;;;;;13.10;7.78;;;;;;;6.58;62.62;102489.81;5074920;28;20121;-82
2023/03/01 10:05:46;;;;;;;13.88;7.95;;;;;;;6.58;63.55;102489.81;5089190;28;20107;-82
2023/03/01 10:08:36;;;;;;;14.00;7.80;;;;;;;6.54;65.38;102483.63;5056381;28;20032;-82
2023/03/01 10:11:03;;;;;;;15.70;7.75;;;;;;;6.85;64.51;102467.97;5056638;28;20093;-82
2023/03/01 10:13:56;;;;;;;17.65;8.75;;;;;;;6.74;63.63;102477.44;5075248;28;20025;-82
2023/03/01 10:16:44;;;;;;;14.15;8.20;;;;;;;6.91;61.39;102478.66;5077499;28;20042;-82
2023/03/01 10:19:20;;;;;;;14.55;9.50;;;;;;;6.42;61.21;102479.47;5077382;28;20068;-82
2023/03/01 10:21:46;;;;;;;19.95;8.55;;;;;;;6.25;60.21;102471.91;5095885;28;20063;-82
2023/03/01 10:24:15;;;;;;;13.50;8.32;;;;;;;5.97;62.92;102463.81;5077457;28;20024;-83
2023/03/01 10:26:43;;;;;;;16.20;8.10;;;;;;;6.07;64.84;102459.84;5094037;28;20051;-81
2023/03/01 10:29:11;;;;;;;12.73;7.20;;;;;;;6.74;61.04;102447.50;5073407;28;20050;-82
2023/03/01 10:31:42;;;;;;;14.38;7.13;;;;;;;6.30;61.10;102439.13;5094878;28;20035;-81
2023/03/01 10:34:30;;;;;;;15.18;8.25;;;;;;;6.32;60.97;102444.50;5076758;28;20047;-81
2023/03/01 10:37:09;;;;;;;15.32;7.90;;;;;;;6.33;60.99;102438.09;5094024;28;20063;-81
2023/03/01 10:39:34;;;;;;;12.95;7.63;;;;;;;6.35;60.23;102437.13;5055247;28;20131;-80
2023/03/01 10:42:18;;;;;;;19.60;8.00;;;;;;;6.94;61.32;102433.13;5076134;28;20406;-81
2023/03/01 10:44:47;;;;;;;14.43;6.97;;;;;;;6.97;59.67;102441.19;5095024;28;20028;-81
2023/03/01 10:47:23;;;;;;;13.88;7.63;;;;;;;7.07;58.81;102430.81;5073407;28;20020;-81
2023/03/01 10:50:04;;;;;;;12.35;6.65;;;;;;;6.91;60.30;102445.97;5060168;28;20513;-82
2023/03/01 10:52:31;;;;;;;11.40;6.88;;;;;;;6.87;59.63;102439.75;5085301;28;20443;-81
2023/03/01 10:55:00;;;;;;;11.88;6.85;;;;;;;6.76;57.81;102429.25;5114130;28;20030;-81
2023/03/01 10:57:38;;;;;;;17.45;7.45;;;;;;;6.14;58.75;102429.72;5079770;28;20061;-81
2023/03/01 11:00:23;;;;;;;12.15;6.47;;;;;;;6.88;60.01;102430.63;5097120;28;20028;-81
2023/03/01 11:03:14;;;;;;;11.73;6.38;;;;;;;6.86;58.88;102407.16;5095982;28;20028;-81
2023/03/01 11:06:02;;;;;;;9.38;6.07;;;;;;;7.12;56.91;102419.75;5096763;28;20088;-81
2023/03/01 11:09:00;;;;;;;14.38;6.72;;;;;;;6.47;59.44;102430.34;5094847;28;20051;-82
2023/03/01 11:11:34;;;;;;;13.77;7.13;;;;;;;6.10;59.90;102445.28;5083888;28;20040;-81
2023/03/01 11:14:06;;;;;;;10.27;5.78;;;;;;;6.57;57.24;102444.50;5078840;28;20122;-81
2023/03/01 11:16:35;;;;;;;14.75;6.55;;;;;;;6.46;58.56;102447.63;5096955;28;20125;-81
2023/03/01 11:19:21;;;;;;;9.13;5.45;;;;;;;6.71;58.94;102431.28;5095726;28;20031;-81
2023/03/01 11:22:22;;;;;;;13.80;6.55;;;;;;;6.49;58.26;102422.13;5079954;28;20034;-81
2023/03/01 11:24:51;;;;;;;10.10;5.68;;;;;;;6.32;58.05;102436.34;5086739;28;20048;-81
2023/03/01 11:27:26;;;;;;;17.88;6.30;;;;;;;6.28;58.84;102437.38;5068052;28;20047;-81